Time;durP1;ratioP1;P1;durP2;ratioP2;P2;SDS_P1;SDS_P2;PMS_P1;PMS_P2;Temp;Humidity;BMP_temperature;BMP_pressure;BME280_temperature;BME280_humidity;BME280_pressure;Samples;Min_cycle;Max_cycle;Signal;HPM_P1;HPM_P2
2020/12/05 00:01:25;;;;;;;9.73;5.00;;;5.20;71.90;;;;;;5070757;28;20389;-75
2020/12/05 00:03:51;;;;;;;11.18;4.55;;;5.20;72.00;;;;;;5070840;28;20032;-75
2020/12/05 00:06:23;;;;;;;17.88;5.47;;;5.00;71.70;;;;;;5070531;28;20028;-75
2020/12/05 00:08:50;;;;;;;11.95;5.05;;;5.00;72.30;;;;;;5070670;28;20043;-75
2020/12/05 00:11:23;;;;;;;8.82;4.35;;;4.70;72.20;;;;;;5070519;28;20056;-75
2020/12/05 00:13:49;;;;;;;8.02;4.35;;;4.60;73.40;;;;;;5056570;28;20052;-75
2020/12/05 00:16:15;;;;;;;8.55;4.20;;;4.30;74.20;;;;;;5074246;28;20055;-75
2020/12/05 00:18:40;;;;;;;7.93;4.20;;;4.30;74.40;;;;;;5074444;28;20497;-75
2020/12/05 00:21:06;;;;;;;8.07;4.35;;;4.30;74.70;;;;;;5074205;28;20063;-75
2020/12/05 00:23:32;;;;;;;18.00;4.57;;;4.30;74.20;;;;;;5074261;28;20028;-75
2020/12/05 00:25:57;;;;;;;8.88;4.60;;;4.10;75.10;;;;;;5056024;28;20048;-75
2020/12/05 00:28:23;;;;;;;9.95;5.40;;;4.00;76.50;;;;;;5074311;28;20090;-75
2020/12/05 00:30:49;;;;;;;8.00;4.82;;;4.10;76.50;;;;;;5074096;28;20447;-75
2020/12/05 00:33:14;;;;;;;8.85;4.70;;;4.10;76.00;;;;;;5056181;28;20103;-75
2020/12/05 00:35:41;;;;;;;10.02;5.32;;;4.10;75.70;;;;;;5073683;28;20525;-75
2020/12/05 00:38:06;;;;;;;8.35;4.40;;;3.80;76.30;;;;;;5074126;28;20108;-75
2020/12/05 00:40:32;;;;;;;7.85;4.00;;;3.80;76.90;;;;;;5072925;28;20097;-75
2020/12/05 00:42:58;;;;;;;9.85;3.83;;;3.70;77.00;;;;;;5056227;28;20020;-75
2020/12/05 00:45:24;;;;;;;12.52;4.70;;;4.00;76.80;;;;;;5073876;28;20423;-75
2020/12/05 00:47:50;;;;;;;6.40;4.07;;;4.10;76.10;;;;;;5074024;28;20021;-75
2020/12/05 00:50:16;;;;;;;5.60;3.60;;;4.10;76.10;;;;;;5055868;28;20600;-75
2020/12/05 00:52:41;;;;;;;9.25;3.80;;;4.10;76.30;;;;;;5073864;28;20035;-76
2020/12/05 00:55:07;;;;;;;6.35;3.72;;;4.20;76.50;;;;;;5055786;28;20021;-75
2020/12/05 00:57:33;;;;;;;13.45;4.13;;;4.20;75.80;;;;;;5055858;28;20099;-75
2020/12/05 00:59:59;;;;;;;11.20;4.22;;;4.10;76.50;;;;;;5073600;28;20092;-75
2020/12/05 01:02:27;;;;;;;8.02;4.32;;;4.00;76.50;;;;;;5055681;28;20024;-75
2020/12/05 01:04:53;;;;;;;7.68;4.15;;;4.10;77.40;;;;;;5055299;28;20028;-75
2020/12/05 01:07:25;;;;;;;6.85;4.05;;;4.10;76.20;;;;;;5055608;28;20028;-75
2020/12/05 01:09:52;;;;;;;11.80;3.90;;;4.10;77.20;;;;;;5073480;28;20028;-76
2020/12/05 01:12:18;;;;;;;8.40;4.40;;;4.20;76.90;;;;;;5073309;28;20036;-75
2020/12/05 01:14:44;;;;;;;5.78;4.30;;;4.30;76.30;;;;;;5071984;28;20027;-75
2020/12/05 01:17:10;;;;;;;5.82;3.75;;;4.10;76.60;;;;;;5073330;28;20471;-75
2020/12/05 01:19:35;;;;;;;9.85;4.00;;;4.10;77.00;;;;;;5073283;28;20052;-75
2020/12/05 01:22:01;;;;;;;5.65;3.88;;;4.00;77.40;;;;;;5038574;28;20430;-75
2020/12/05 01:24:27;;;;;;;7.07;3.80;;;4.20;77.80;;;;;;5054979;28;20102;-75
2020/12/05 01:26:52;;;;;;;6.47;3.58;;;4.20;77.10;;;;;;5073134;28;20020;-75
2020/12/05 01:29:18;;;;;;;4.97;3.38;;;4.20;76.80;;;;;;5073187;28;20029;-75
2020/12/05 01:31:48;;;;;;;4.75;3.35;;;4.40;77.40;;;;;;5055091;28;20556;-76
2020/12/05 01:34:14;;;;;;;11.68;3.38;;;4.50;77.10;;;;;;5072906;28;20021;-75
2020/12/05 01:36:45;;;;;;;6.72;2.38;;;4.60;77.00;;;;;;5072900;28;20070;-75
2020/12/05 01:39:11;;;;;;;4.78;3.20;;;4.60;76.70;;;;;;5072999;28;20025;-75
2020/12/05 01:41:37;;;;;;;11.10;3.10;;;4.60;76.70;;;;;;5054778;28;20396;-75
2020/12/05 01:44:03;;;;;;;7.22;3.15;;;4.70;76.60;;;;;;5054972;28;20020;-75
2020/12/05 01:46:41;;;;;;;5.43;2.40;;;4.60;77.30;;;;;;5054625;28;20020;-75
2020/12/05 01:49:09;;;;;;;3.75;2.47;;;4.60;77.60;;;;;;5071364;28;20060;-75
2020/12/05 01:51:38;;;;;;;4.28;2.53;;;4.70;77.90;;;;;;5072446;28;20025;-75
2020/12/05 01:54:05;;;;;;;5.47;1.92;;;4.70;77.70;;;;;;5054754;28;20020;-75
2020/12/05 01:56:31;;;;;;;23.38;6.25;;;4.90;78.20;;;;;;5054794;28;20047;-75
2020/12/05 01:58:57;;;;;;;2.90;1.55;;;5.00;78.00;;;;;;5054424;28;20467;-75
2020/12/05 02:01:26;;;;;;;1.70;1.27;;;5.10;79.30;;;;;;5072285;28;20467;-75
2020/12/05 02:03:56;;;;;;;4.20;1.13;;;5.30;79.60;;;;;;5037843;28;20032;-75
2020/12/05 02:06:37;;;;;;;0.70;0.70;;;5.50;79.00;;;;;;5054383;28;20024;-75
2020/12/05 02:09:09;;;;;;;2.20;0.60;;;5.80;79.90;;;;;;5072223;28;20096;-75
2020/12/05 02:11:41;;;;;;;0.55;0.30;;;6.00;80.50;;;;;;5072099;28;20026;-75
2020/12/05 02:14:10;;;;;;;2.65;0.20;;;6.50;79.60;;;;;;5071766;28;20096;-75
2020/12/05 02:16:39;;;;;;;0.20;0.20;;;7.00;77.70;;;;;;5071789;28;20037;-75
2020/12/05 02:19:08;;;;;;;0.30;0.30;;;7.20;76.70;;;;;;5054056;28;20476;-75
2020/12/05 02:21:38;;;;;;;0.43;0.20;;;7.40;76.20;;;;;;5053829;28;20032;-75
2020/12/05 02:24:04;;;;;;;0.13;0.13;;;7.60;75.80;;;;;;5071880;28;20025;-75
2020/12/05 02:26:30;;;;;;;0.20;0.20;;;7.70;75.20;;;;;;5072007;28;20048;-75
2020/12/05 02:28:56;;;;;;;0.15;0.13;;;7.70;75.30;;;;;;5054085;28;20070;-75
2020/12/05 02:31:25;;;;;;;0.20;0.20;;;7.70;75.10;;;;;;5072004;28;20039;-75
2020/12/05 02:33:51;;;;;;;0.20;0.20;;;7.80;74.90;;;;;;5072115;28;20024;-75
2020/12/05 02:36:16;;;;;;;0.20;0.20;;;8.00;74.00;;;;;;5071437;28;20025;-75
2020/12/05 02:39:07;;;;;;;0.20;0.20;;;8.10;73.20;;;;;;5054010;28;20092;-75
2020/12/05 02:41:38;;;;;;;0.20;0.20;;;8.10;73.10;;;;;;5053796;28;20036;-75
2020/12/05 02:44:04;;;;;;;0.20;0.20;;;8.20;73.00;;;;;;5071648;28;20483;-76
2020/12/05 02:46:30;;;;;;;0.20;0.20;;;8.10;73.20;;;;;;5071527;28;20020;-75
2020/12/05 02:48:56;;;;;;;0.20;0.20;;;8.10;73.10;;;;;;5071586;28;20032;-75
2020/12/05 02:51:22;;;;;;;0.20;0.20;;;8.20;73.00;;;;;;5071467;28;20033;-75
2020/12/05 02:53:48;;;;;;;0.20;0.20;;;8.30;72.40;;;;;;5053483;28;20480;-76
2020/12/05 02:56:18;;;;;;;0.20;0.20;;;8.20;72.30;;;;;;5053346;28;20048;-75
2020/12/05 02:58:47;;;;;;;0.32;0.30;;;8.40;71.70;;;;;;5053459;28;20099;-75
2020/12/05 03:01:13;;;;;;;0.30;0.30;;;8.40;71.10;;;;;;5053691;28;20094;-75
2020/12/05 03:03:39;;;;;;;0.20;0.20;;;8.40;71.40;;;;;;5053402;28;20024;-75
2020/12/05 03:06:05;;;;;;;0.30;0.30;;;8.30;71.40;;;;;;5071284;28;20664;-75
2020/12/05 03:08:31;;;;;;;0.22;0.22;;;8.20;71.90;;;;;;5053385;28;20086;-75
2020/12/05 03:10:57;;;;;;;0.20;0.20;;;8.10;72.20;;;;;;5071159;28;20029;-75
2020/12/05 03:13:23;;;;;;;0.30;0.30;;;8.20;71.90;;;;;;5036629;28;20017;-75
2020/12/05 03:15:49;;;;;;;0.20;0.20;;;8.20;72.00;;;;;;5069834;28;20494;-76
2020/12/05 03:18:14;;;;;;;0.52;0.30;;;8.10;72.50;;;;;;5071203;28;20100;-75
2020/12/05 03:20:40;;;;;;;0.22;0.22;;;8.00;73.00;;;;;;5053253;28;20024;-75
2020/12/05 03:23:06;;;;;;;0.22;0.22;;;8.00;73.40;;;;;;5069783;28;20520;-75
2020/12/05 03:25:32;;;;;;;0.13;0.13;;;8.10;73.40;;;;;;5053128;28;20467;-75
2020/12/05 03:27:57;;;;;;;0.30;0.30;;;8.30;72.80;;;;;;5069840;28;20024;-75
2020/12/05 03:30:23;;;;;;;0.32;0.30;;;8.50;72.40;;;;;;5071141;28;20063;-75
2020/12/05 03:32:49;;;;;;;0.28;0.20;;;8.50;72.30;;;;;;5070949;28;20604;-75
2020/12/05 03:35:15;;;;;;;0.10;0.10;;;8.90;71.40;;;;;;5052990;28;20027;-75
2020/12/05 03:37:41;;;;;;;0.20;0.20;;;9.10;70.30;;;;;;5052675;28;20078;-75
2020/12/05 03:40:07;;;;;;;0.20;0.20;;;9.10;70.80;;;;;;5053032;28;20037;-75
2020/12/05 03:42:32;;;;;;;0.20;0.20;;;9.20;70.70;;;;;;5070910;28;20104;-75
2020/12/05 03:44:58;;;;;;;0.15;0.15;;;9.30;70.10;;;;;;5052923;28;20027;-75
2020/12/05 03:47:24;;;;;;;0.20;0.20;;;9.40;69.80;;;;;;5054356;28;20020;-75
2020/12/05 03:49:50;;;;;;;0.20;0.20;;;9.50;68.60;;;;;;5056984;28;20021;-75
2020/12/05 03:52:16;;;;;;;0.20;0.20;;;9.40;69.50;;;;;;5074731;28;20042;-75
2020/12/05 03:54:42;;;;;;;0.30;0.30;;;9.30;70.10;;;;;;5056847;28;20071;-75
2020/12/05 03:57:08;;;;;;;0.20;0.20;;;9.30;70.40;;;;;;5056714;28;20055;-75
2020/12/05 03:59:34;;;;;;;0.10;0.10;;;9.20;70.90;;;;;;5056866;28;20048;-75
2020/12/05 04:02:00;;;;;;;0.20;0.20;;;9.10;71.60;;;;;;5074935;28;20499;-75
2020/12/05 04:04:26;;;;;;;0.20;0.20;;;8.90;72.50;;;;;;5074551;28;20074;-75
2020/12/05 04:06:52;;;;;;;0.32;0.32;;;8.80;73.20;;;;;;5074656;28;20479;-75
2020/12/05 04:09:17;;;;;;;0.20;0.20;;;8.70;73.90;;;;;;5056804;28;20024;-75
2020/12/05 04:11:43;;;;;;;0.30;0.30;;;8.50;75.30;;;;;;5074733;28;20029;-75
2020/12/05 04:14:10;;;;;;;0.63;0.30;;;8.40;76.20;;;;;;5056593;28;20039;-75
2020/12/05 04:16:36;;;;;;;0.13;0.13;;;8.40;76.80;;;;;;5074571;28;20028;-75
2020/12/05 04:19:03;;;;;;;0.43;0.20;;;8.40;77.30;;;;;;5056568;28;20024;-75
2020/12/05 04:21:28;;;;;;;0.20;0.20;;;8.30;78.00;;;;;;5074373;28;20028;-75
2020/12/05 04:23:54;;;;;;;0.25;0.25;;;8.20;78.30;;;;;;5074378;28;20107;-76
2020/12/05 04:26:21;;;;;;;0.20;0.20;;;8.20;78.20;;;;;;5056274;28;20052;-75
2020/12/05 04:28:47;;;;;;;2.72;1.88;;;8.20;78.60;;;;;;5056327;28;20051;-75
2020/12/05 04:31:13;;;;;;;7.50;4.53;;;7.70;74.40;;;;;;5074154;28;20075;-75
2020/12/05 04:33:39;;;;;;;11.48;6.72;;;7.10;76.70;;;;;;5056166;28;20025;-75
2020/12/05 04:36:05;;;;;;;14.10;9.05;;;6.70;79.20;;;;;;5055739;28;20056;-76
2020/12/05 04:38:30;;;;;;;18.10;11.65;;;6.40;80.30;;;;;;5074115;28;20016;-75
2020/12/05 04:41:00;;;;;;;21.50;13.18;;;6.00;80.80;;;;;;5072616;28;20494;-75
2020/12/05 04:43:26;;;;;;;23.83;15.20;;;5.70;81.40;;;;;;5074006;28;20021;-75
2020/12/05 04:45:53;;;;;;;26.08;15.05;;;5.30;82.40;;;;;;5073803;28;20017;-75
2020/12/05 04:48:20;;;;;;;25.80;16.20;;;5.20;83.50;;;;;;5055905;28;20031;-75
2020/12/05 04:50:47;;;;;;;28.92;16.08;;;5.10;84.40;;;;;;5039161;28;20081;-75
2020/12/05 04:53:20;;;;;;;24.42;15.75;;;4.80;85.10;;;;;;5055559;28;20026;-75
2020/12/05 04:55:46;;;;;;;28.05;16.67;;;4.80;85.90;;;;;;5055803;28;20024;-75
2020/12/05 04:58:20;;;;;;;24.95;15.18;;;4.80;85.90;;;;;;5038528;28;20106;-75
2020/12/05 05:00:51;;;;;;;25.52;15.50;;;4.70;86.40;;;;;;5055623;28;20020;-75
2020/12/05 05:03:20;;;;;;;24.48;15.45;;;4.60;86.50;;;;;;5073250;28;20541;-75
2020/12/05 05:05:46;;;;;;;27.02;16.65;;;4.80;86.70;;;;;;5073238;28;20016;-75
2020/12/05 05:08:12;;;;;;;26.90;17.42;;;4.80;86.30;;;;;;5073033;28;20047;-75
2020/12/05 05:10:38;;;;;;;28.92;17.75;;;4.80;86.20;;;;;;5055342;28;20025;-75
2020/12/05 05:15:42;;;;;;;25.23;15.45;;;4.70;87.50;;;;;;5055050;28;20056;-75
2020/12/05 05:18:08;;;;;;;28.65;16.73;;;4.80;86.40;;;;;;5073399;28;20026;-75
2020/12/05 05:20:44;;;;;;;28.33;16.08;;;4.60;87.20;;;;;;5055117;28;20032;-75
2020/12/05 05:23:11;;;;;;;27.13;16.40;;;4.60;87.10;;;;;;5072087;28;20017;-75
2020/12/05 05:25:58;;;;;;;23.85;15.05;;;4.60;87.70;;;;;;5055097;28;20044;-75
2020/12/05 05:28:29;;;;;;;30.55;15.82;;;4.60;87.20;;;;;;5073266;28;20020;-75
2020/12/05 05:31:15;;;;;;;27.27;16.15;;;4.70;86.90;;;;;;5055080;28;20021;-75
2020/12/05 05:33:49;;;;;;;23.75;15.43;;;4.60;86.80;;;;;;5073073;28;20385;-75
2020/12/05 05:36:18;;;;;;;27.52;17.10;;;4.40;88.20;;;;;;5071368;28;20020;-75
2020/12/05 05:38:54;;;;;;;25.60;16.17;;;4.40;88.40;;;;;;5055093;28;20024;-75
2020/12/05 05:41:20;;;;;;;29.90;16.25;;;4.60;88.50;;;;;;5086110;22;20392;-75
2020/12/05 05:43:57;;;;;;;26.10;15.82;;;4.70;87.30;;;;;;5037760;28;20025;-75
2020/12/05 05:46:25;;;;;;;28.00;14.95;;;4.80;87.20;;;;;;5072256;28;20016;-75
2020/12/05 05:48:51;;;;;;;28.75;15.30;;;4.80;86.80;;;;;;5055018;28;20128;-75
2020/12/05 05:51:16;;;;;;;26.33;15.65;;;4.90;87.40;;;;;;5072876;28;20099;-75
2020/12/05 05:53:42;;;;;;;23.33;14.48;;;4.90;86.60;;;;;;5072907;28;20027;-75
2020/12/05 05:56:12;;;;;;;25.33;14.98;;;4.70;87.00;;;;;;5072258;28;20074;-75
2020/12/05 05:58:38;;;;;;;25.63;14.73;;;4.70;87.70;;;;;;5054538;28;20494;-75
2020/12/05 06:01:03;;;;;;;23.27;14.45;;;4.60;88.10;;;;;;5071992;28;20028;-75
2020/12/05 06:03:43;;;;;;;24.98;14.80;;;4.70;88.40;;;;;;5054483;28;20099;-75
2020/12/05 06:06:09;;;;;;;27.02;14.90;;;4.70;88.60;;;;;;5037484;28;20028;-75
2020/12/05 06:08:37;;;;;;;24.88;15.98;;;4.70;88.00;;;;;;5072198;28;20033;-75
2020/12/05 06:11:10;;;;;;;26.63;15.35;;;4.60;88.10;;;;;;5053217;28;20077;-75
2020/12/05 06:13:36;;;;;;;26.95;14.35;;;4.50;88.80;;;;;;5072001;28;20081;-75
2020/12/05 06:16:03;;;;;;;24.83;14.38;;;4.30;89.90;;;;;;5071865;28;20426;-75
2020/12/05 06:18:30;;;;;;;21.27;13.73;;;4.30;90.20;;;;;;5070505;28;20078;-75
2020/12/05 06:20:55;;;;;;;24.58;14.43;;;4.40;90.50;;;;;;5037212;28;20045;-75
2020/12/05 06:23:32;;;;;;;23.42;15.00;;;4.70;90.40;;;;;;5053976;28;20545;-75
2020/12/05 06:26:00;;;;;;;25.13;14.20;;;4.90;89.60;;;;;;5071562;28;20016;-75
2020/12/05 06:28:27;;;;;;;30.25;17.05;;;4.90;88.50;;;;;;5071914;28;20099;-75
2020/12/05 06:30:53;;;;;;;33.33;18.42;;;4.80;88.00;;;;;;5053495;28;20248;-75
2020/12/05 06:33:40;;;;;;;35.40;20.13;;;4.90;89.10;;;;;;5053782;28;20021;-75
2020/12/05 06:36:27;;;;;;;40.38;21.40;;;4.80;88.90;;;;;;5053301;28;20369;-75
2020/12/05 06:39:05;;;;;;;34.60;20.63;;;4.90;89.20;;;;;;5053788;28;20021;-74
2020/12/05 06:41:36;;;;;;;33.08;19.05;;;4.80;89.40;;;;;;5069937;28;20118;-75
2020/12/05 06:44:16;;;;;;;23.83;14.37;;;4.80;89.90;;;;;;5037060;28;20047;-75
2020/12/05 06:46:45;;;;;;;23.83;14.00;;;4.60;89.80;;;;;;5071271;28;20031;-75
2020/12/05 06:49:11;;;;;;;23.00;14.32;;;4.30;90.50;;;;;;5071416;28;20547;-75
2020/12/05 06:51:37;;;;;;;22.85;14.13;;;4.10;90.80;;;;;;5069863;28;20124;-75
2020/12/05 06:54:03;;;;;;;24.27;13.73;;;4.10;91.70;;;;;;5071333;28;20067;-75
2020/12/05 06:56:28;;;;;;;27.83;13.80;;;4.00;92.50;;;;;;5053252;28;20046;-75
2020/12/05 06:58:57;;;;;;;22.83;13.13;;;4.20;92.10;;;;;;5071161;28;20021;-75
2020/12/05 07:01:30;;;;;;;25.27;14.95;;;4.20;92.40;;;;;;5071238;28;20021;-75
2020/12/05 07:04:19;;;;;;;29.00;15.48;;;4.40;91.60;;;;;;5053121;28;20078;-75
2020/12/05 07:06:46;;;;;;;27.35;15.07;;;4.50;91.70;;;;;;5071214;28;20029;-75
2020/12/05 07:09:12;;;;;;;22.92;14.60;;;4.60;91.70;;;;;;5071073;28;20108;-75
2020/12/05 07:11:38;;;;;;;22.88;13.70;;;4.60;91.40;;;;;;5053459;28;20112;-75
2020/12/05 07:14:04;;;;;;;20.42;12.45;;;4.60;91.30;;;;;;5071527;28;20048;-75
2020/12/05 07:16:38;;;;;;;22.02;13.40;;;4.60;91.50;;;;;;5071831;28;20025;-75
2020/12/05 07:19:04;;;;;;;18.65;12.02;;;4.70;91.30;;;;;;5055084;28;20035;-75
2020/12/05 07:21:30;;;;;;;21.90;13.45;;;4.80;91.30;;;;;;5064837;22;20028;-75
2020/12/05 07:23:57;;;;;;;20.02;13.05;;;4.80;91.00;;;;;;5072271;28;20413;-77
2020/12/05 07:26:23;;;;;;;25.70;12.05;;;4.70;91.00;;;;;;5070367;28;20013;-79
2020/12/05 07:28:51;;;;;;;20.75;12.70;;;4.80;90.60;;;;;;5071266;28;20020;-76
2020/12/05 07:31:18;;;;;;;23.40;13.52;;;4.50;91.60;;;;;;5056210;28;20052;-76
2020/12/05 07:33:45;;;;;;;22.13;13.32;;;4.40;92.20;;;;;;5072881;28;20418;-77
2020/12/05 07:36:13;;;;;;;21.92;15.13;;;4.20;92.90;;;;;;5072999;28;20035;-77
2020/12/05 07:38:41;;;;;;;28.75;18.35;;;4.30;92.90;;;;;;5072110;28;20379;-77
2020/12/05 07:41:20;;;;;;;27.52;18.85;;;4.50;92.70;;;;;;5054005;28;20046;-77
2020/12/05 07:43:46;;;;;;;32.05;17.92;;;4.30;93.20;;;;;;5053639;28;20025;-77
2020/12/05 07:46:14;;;;;;;22.92;14.85;;;4.40;93.60;;;;;;5052836;28;20054;-77
2020/12/05 07:48:41;;;;;;;32.75;17.63;;;4.50;93.30;;;;;;5069651;28;20031;-77
2020/12/05 07:51:15;;;;;;;36.13;17.63;;;4.50;93.00;;;;;;5053526;28;20029;-77
2020/12/05 07:53:42;;;;;;;37.83;18.02;;;4.60;92.40;;;;;;5056924;28;20035;-77
2020/12/05 07:56:22;;;;;;;35.75;19.67;;;4.60;93.60;;;;;;5071557;28;20033;-78
2020/12/05 07:58:56;;;;;;;29.95;16.95;;;4.80;92.60;;;;;;5071825;28;20021;-77
2020/12/05 08:01:43;;;;;;;25.83;15.70;;;4.90;92.40;;;;;;5070472;28;20031;-75
2020/12/05 08:04:22;;;;;;;28.70;16.20;;;4.90;92.50;;;;;;5035596;28;20025;-75
2020/12/05 08:07:05;;;;;;;24.88;15.68;;;5.00;92.10;;;;;;5036138;28;20107;-75
2020/12/05 08:09:35;;;;;;;27.48;15.98;;;5.00;92.00;;;;;;5052623;28;20077;-75
2020/12/05 08:12:05;;;;;;;26.83;15.38;;;5.00;91.30;;;;;;5070535;28;20047;-75
2020/12/05 08:14:33;;;;;;;24.52;15.98;;;5.00;91.50;;;;;;5052372;28;20016;-75
2020/12/05 08:17:02;;;;;;;23.90;15.52;;;5.00;91.90;;;;;;5070432;28;20017;-75
2020/12/05 08:19:29;;;;;;;26.58;16.23;;;5.10;92.00;;;;;;5070358;28;20101;-75
2020/12/05 08:21:59;;;;;;;25.73;16.15;;;5.10;91.40;;;;;;5070345;28;20040;-75
2020/12/05 08:24:25;;;;;;;25.67;15.70;;;5.10;91.70;;;;;;5052245;28;20060;-75
2020/12/05 08:26:51;;;;;;;25.63;15.77;;;5.00;91.90;;;;;;5070409;28;20090;-75
2020/12/05 08:29:18;;;;;;;25.45;16.13;;;5.10;92.40;;;;;;5070414;28;20124;-75
2020/12/05 08:31:44;;;;;;;27.75;17.38;;;5.30;92.00;;;;;;5035608;28;20101;-75
2020/12/05 08:34:10;;;;;;;28.67;16.98;;;5.50;91.00;;;;;;5054686;28;20055;-75
2020/12/05 08:36:45;;;;;;;28.58;16.23;;;5.30;90.90;;;;;;5073963;28;20447;-75
2020/12/05 08:39:13;;;;;;;24.30;15.65;;;5.30;91.50;;;;;;5056142;28;20472;-75
2020/12/05 08:41:42;;;;;;;27.52;16.08;;;5.30;91.30;;;;;;5073821;28;20108;-75
2020/12/05 08:44:13;;;;;;;24.10;15.82;;;5.30;90.80;;;;;;5055838;28;20120;-75
2020/12/05 08:46:39;;;;;;;23.38;15.13;;;5.20;91.50;;;;;;5055830;28;20496;-75
2020/12/05 08:49:19;;;;;;;26.27;16.23;;;5.10;91.80;;;;;;5055805;28;20025;-75
2020/12/05 08:51:51;;;;;;;25.15;16.83;;;5.10;92.40;;;;;;5055641;28;20478;-75
2020/12/05 08:54:17;;;;;;;28.13;16.77;;;5.20;92.30;;;;;;5055589;28;20106;-75
2020/12/05 08:56:43;;;;;;;25.23;15.93;;;5.30;92.10;;;;;;5055603;28;20054;-75
2020/12/05 08:59:10;;;;;;;25.15;16.33;;;5.50;91.70;;;;;;5073620;28;20029;-75
2020/12/05 09:01:43;;;;;;;25.67;15.18;;;5.60;90.60;;;;;;5073492;28;20021;-75
2020/12/05 09:04:13;;;;;;;29.15;17.58;;;5.50;91.10;;;;;;5055256;28;20484;-75
2020/12/05 09:06:39;;;;;;;26.02;16.30;;;5.40;91.00;;;;;;5073368;28;20476;-75
2020/12/05 09:09:06;;;;;;;22.88;13.85;;;5.50;91.30;;;;;;5073658;28;20078;-75
2020/12/05 09:11:32;;;;;;;30.45;17.83;;;5.60;91.10;;;;;;5055557;28;20033;-75
2020/12/05 09:13:58;;;;;;;25.35;16.23;;;5.60;91.00;;;;;;5055699;28;20404;-75
2020/12/05 09:16:34;;;;;;;30.42;18.35;;;5.70;91.30;;;;;;5055195;28;20021;-75
2020/12/05 09:19:00;;;;;;;26.75;15.20;;;5.60;91.20;;;;;;5073538;28;20024;-75
2020/12/05 09:21:26;;;;;;;26.27;15.27;;;5.60;91.30;;;;;;5055275;28;20504;-76
2020/12/05 09:24:06;;;;;;;31.23;17.40;;;5.70;90.90;;;;;;5073459;28;20028;-75
2020/12/05 09:26:33;;;;;;;29.27;15.40;;;5.60;90.60;;;;;;5073084;28;20437;-75
2020/12/05 09:28:59;;;;;;;22.55;14.43;;;5.60;91.20;;;;;;5073041;28;20024;-75
2020/12/05 09:31:25;;;;;;;25.85;15.95;;;5.70;90.80;;;;;;5072921;28;20035;-75
2020/12/05 09:33:51;;;;;;;31.70;16.83;;;5.70;91.20;;;;;;5072801;28;20021;-75
2020/12/05 09:36:16;;;;;;;26.00;15.25;;;5.70;90.90;;;;;;5072810;28;20371;-75
2020/12/05 09:38:42;;;;;;;23.33;15.07;;;5.70;90.90;;;;;;5054996;28;20031;-76
2020/12/05 09:41:08;;;;;;;27.55;17.50;;;5.40;91.90;;;;;;5072515;28;20028;-76
2020/12/05 09:43:33;;;;;;;27.17;16.58;;;5.40;92.40;;;;;;5072630;28;20020;-75
2020/12/05 09:45:59;;;;;;;26.27;16.90;;;5.50;92.10;;;;;;5053511;28;20077;-76
2020/12/05 09:48:25;;;;;;;25.55;17.38;;;5.50;92.00;;;;;;5072324;28;20025;-76
2020/12/05 09:50:51;;;;;;;33.33;17.08;;;5.50;91.90;;;;;;5054554;28;20028;-75
2020/12/05 09:53:16;;;;;;;28.63;17.05;;;5.50;92.00;;;;;;5037986;28;20059;-76
2020/12/05 09:55:42;;;;;;;29.67;16.77;;;5.50;92.10;;;;;;5072127;28;20025;-75
2020/12/05 09:58:08;;;;;;;28.70;17.35;;;5.50;92.00;;;;;;5054323;28;20024;-75
2020/12/05 10:00:34;;;;;;;28.08;17.25;;;5.60;91.80;;;;;;5054163;28;20685;-75
2020/12/05 10:03:00;;;;;;;32.45;18.08;;;5.60;91.40;;;;;;5073599;28;20033;-77
2020/12/05 10:05:25;;;;;;;29.63;16.10;;;5.40;91.70;;;;;;5073731;28;20029;-77
2020/12/05 10:07:52;;;;;;;28.77;17.52;;;5.30;92.40;;;;;;5038099;28;20035;-77
2020/12/05 10:10:18;;;;;;;30.02;16.00;;;5.20;92.10;;;;;;5056212;28;20025;-77
2020/12/05 10:12:46;;;;;;;24.15;16.15;;;5.30;92.90;;;;;;5055180;28;20037;-76
2020/12/05 10:15:14;;;;;;;29.98;15.48;;;5.40;92.70;;;;;;5071582;28;20081;-76
2020/12/05 10:17:43;;;;;;;24.55;15.93;;;5.40;92.30;;;;;;5071801;28;20028;-76
2020/12/05 10:20:09;;;;;;;28.38;17.52;;;5.40;92.50;;;;;;5071845;28;20118;-76
2020/12/05 10:22:36;;;;;;;25.23;15.25;;;5.30;92.70;;;;;;5054067;28;20064;-75
2020/12/05 10:25:04;;;;;;;24.20;14.43;;;5.40;93.10;;;;;;5071662;28;20013;-75
2020/12/05 10:27:29;;;;;;;25.90;15.00;;;5.50;92.60;;;;;;5054039;28;20028;-74
2020/12/05 10:29:55;;;;;;;30.02;17.60;;;5.40;92.50;;;;;;5071891;28;20153;-76
2020/12/05 10:32:21;;;;;;;34.00;17.73;;;5.40;93.20;;;;;;5071562;28;20543;-75
2020/12/05 10:34:47;;;;;;;36.30;20.25;;;5.30;93.20;;;;;;5071576;28;20031;-76
2020/12/05 10:37:12;;;;;;;62.38;31.95;;;5.10;93.10;;;;;;5072422;28;20027;-76
2020/12/05 10:39:38;;;;;;;41.95;24.38;;;5.00;93.50;;;;;;5071642;28;20016;-76
2020/12/05 10:42:04;;;;;;;41.65;24.77;;;4.80;94.40;;;;;;5037055;28;20367;-76
2020/12/05 10:44:30;;;;;;;42.13;24.00;;;4.60;95.50;;;;;;5071288;28;20025;-75
2020/12/05 10:46:56;;;;;;;42.00;24.50;;;4.60;96.40;;;;;;5071178;28;20445;-75
2020/12/05 10:49:23;;;;;;;40.90;24.60;;;4.60;97.60;;;;;;5072283;28;20056;-77
2020/12/05 10:51:49;;;;;;;39.63;24.85;;;4.60;99.20;;;;;;5053749;28;20434;-75
2020/12/05 10:54:15;;;;;;;46.00;25.90;;;4.40;99.90;;;;;;5071830;28;20082;-75
2020/12/05 10:56:41;;;;;;;44.58;26.90;;;4.50;99.90;;;;;;5051895;28;20391;-75
2020/12/05 10:59:08;;;;;;;48.10;26.80;;;4.60;99.90;;;;;;5053141;28;20031;-75
2020/12/05 11:01:34;;;;;;;45.13;27.02;;;4.60;99.90;;;;;;5053581;28;20071;-76
2020/12/05 11:04:01;;;;;;;55.38;27.80;;;4.60;99.90;;;;;;5053346;28;20017;-74
2020/12/05 11:06:30;;;;;;;46.75;27.92;;;4.50;99.90;;;;;;5076899;28;20110;-77
2020/12/05 11:08:56;;;;;;;47.53;28.45;;;4.50;99.90;;;;;;5071686;28;20506;-78
2020/12/05 11:11:22;;;;;;;49.35;29.75;;;4.50;99.90;;;;;;5071388;28;20254;-76
2020/12/05 11:13:48;;;;;;;56.17;30.95;;;4.40;99.90;;;;;;5052377;28;20024;-76
2020/12/05 11:16:18;;;;;;;50.95;30.42;;;4.40;99.90;;;;;;5070779;28;20093;-76
2020/12/05 11:18:45;;;;;;;51.67;29.88;;;4.40;99.90;;;;;;5036548;28;20031;-77
2020/12/05 11:21:10;;;;;;;50.53;30.30;;;4.40;99.90;;;;;;5055782;28;20029;-78
2020/12/05 11:23:36;;;;;;;61.08;29.25;;;4.40;99.90;;;;;;5037974;28;20078;-75
2020/12/05 11:26:02;;;;;;;45.60;29.00;;;4.40;99.90;;;;;;5070752;28;20048;-76
2020/12/05 11:28:27;;;;;;;51.28;29.17;;;4.40;99.90;;;;;;5035780;28;20025;-75
2020/12/05 11:30:53;;;;;;;63.10;31.85;;;4.60;99.90;;;;;;5052837;28;20051;-76
2020/12/05 11:33:19;;;;;;;53.78;30.38;;;4.50;99.90;;;;;;5070637;28;20503;-76
2020/12/05 11:35:44;;;;;;;49.10;28.92;;;4.30;99.90;;;;;;5070521;28;20089;-76
2020/12/05 11:38:10;;;;;;;50.58;30.75;;;4.30;99.90;;;;;;5070721;28;20044;-75
2020/12/05 11:40:36;;;;;;;61.03;32.92;;;4.30;99.90;;;;;;5065001;22;20035;-75
2020/12/05 11:43:02;;;;;;;55.08;30.25;;;4.40;99.90;;;;;;5032744;28;20208;-75
2020/12/05 11:45:27;;;;;;;55.75;29.60;;;4.50;99.90;;;;;;5050269;28;20085;-75
2020/12/05 11:47:53;;;;;;;60.20;32.58;;;4.50;99.90;;;;;;5050453;28;20104;-75
2020/12/05 11:50:19;;;;;;;52.25;30.67;;;4.50;99.90;;;;;;5050242;28;20175;-75
2020/12/05 11:52:45;;;;;;;58.55;31.73;;;4.50;99.90;;;;;;5050463;28;20499;-75
2020/12/05 11:55:10;;;;;;;56.38;32.47;;;4.50;99.90;;;;;;5032882;28;20460;-74
2020/12/05 11:57:37;;;;;;;53.00;30.67;;;4.40;99.90;;;;;;5050352;28;20053;-75
2020/12/05 12:00:03;;;;;;;52.70;31.73;;;4.50;99.90;;;;;;5049612;28;20079;-75
2020/12/05 12:02:29;;;;;;;53.67;30.02;;;4.60;99.90;;;;;;5032785;28;20495;-75
2020/12/05 12:04:55;;;;;;;58.95;32.97;;;4.50;99.90;;;;;;5032370;28;20029;-74
2020/12/05 12:07:20;;;;;;;53.47;31.10;;;4.60;99.90;;;;;;5050339;28;20021;-74
2020/12/05 12:09:46;;;;;;;66.95;34.58;;;4.60;99.90;;;;;;5054044;28;20419;-75
2020/12/05 12:12:12;;;;;;;55.05;31.98;;;4.60;99.90;;;;;;5054142;28;20064;-75
2020/12/05 12:14:38;;;;;;;61.90;32.30;;;4.50;99.90;;;;;;5036228;28;20309;-75
2020/12/05 12:17:03;;;;;;;49.47;31.83;;;4.40;99.90;;;;;;5036101;28;20507;-74
2020/12/05 12:19:29;;;;;;;57.00;31.15;;;4.40;99.90;;;;;;5036248;28;20366;-75
2020/12/05 12:21:55;;;;;;;56.10;32.83;;;4.50;99.90;;;;;;5036157;28;20063;-74
2020/12/05 12:24:20;;;;;;;60.30;32.90;;;4.50;99.90;;;;;;5036190;28;20029;-74
2020/12/05 12:26:46;;;;;;;61.60;33.88;;;4.50;99.90;;;;;;5019992;28;20111;-74
2020/12/05 12:29:12;;;;;;;64.20;33.78;;;4.50;99.90;;;;;;5054697;28;20032;-75
2020/12/05 12:31:37;;;;;;;50.78;30.35;;;4.50;99.90;;;;;;5054307;28;20028;-75
2020/12/05 12:34:03;;;;;;;57.13;33.55;;;4.50;99.90;;;;;;5036369;28;20021;-74
2020/12/05 12:36:29;;;;;;;56.03;31.52;;;4.60;99.90;;;;;;5053737;28;20017;-74
2020/12/05 12:38:55;;;;;;;54.78;31.65;;;4.60;99.90;;;;;;5036498;28;20021;-74
2020/12/05 12:41:20;;;;;;;53.78;31.67;;;4.60;99.90;;;;;;5053680;28;20037;-75
2020/12/05 12:43:48;;;;;;;51.78;29.92;;;4.50;99.90;;;;;;5053647;28;20029;-74
2020/12/05 12:46:16;;;;;;;53.63;32.30;;;4.40;99.90;;;;;;5035709;28;20021;-74
2020/12/05 12:48:42;;;;;;;61.83;31.02;;;4.50;99.90;;;;;;5019202;28;20028;-74